createdAt,value
2018-11-11T00:00:20.504Z,101090.52
2018-11-11T00:02:51.392Z,101096.96
2018-11-11T00:05:20.929Z,101102.02
2018-11-11T00:07:50.113Z,101098.60
2018-11-11T00:10:35.401Z,101091.99
2018-11-11T00:13:04.513Z,101091.99
2018-11-11T00:15:33.623Z,101096.48
2018-11-11T00:18:02.820Z,101086.80
2018-11-11T00:20:31.973Z,101090.00
2018-11-11T00:23:01.277Z,101083.86
2018-11-11T00:25:30.501Z,101090.25
2018-11-11T00:27:59.649Z,101081.19
2018-11-11T00:30:28.877Z,101090.91
2018-11-11T00:32:58.197Z,101084.34
2018-11-11T00:35:27.315Z,101090.17
2018-11-11T00:37:56.515Z,101088.05
2018-11-11T00:40:25.969Z,101090.34
2018-11-11T00:42:55.293Z,101086.72
2018-11-11T00:45:24.471Z,101090.52
2018-11-11T00:47:53.973Z,101091.34
2018-11-11T00:50:23.174Z,101091.20
2018-11-11T00:52:52.469Z,101075.61
2018-11-11T00:55:21.581Z,101079.80
2018-11-11T00:57:50.857Z,101083.95
2018-11-11T01:00:20.677Z,101078.42
2018-11-11T01:02:50.181Z,101075.09
2018-11-11T01:05:19.373Z,101076.34
2018-11-11T01:07:49.188Z,101076.04
2018-11-11T01:10:18.798Z,101073.58
2018-11-11T01:12:47.994Z,101076.50
2018-11-11T01:15:17.938Z,101078.62
2018-11-11T01:17:47.413Z,101080.77
2018-11-11T01:20:17.701Z,101074.98
2018-11-11T01:22:47.761Z,101084.33
2018-11-11T01:25:17.713Z,101090.46
2018-11-11T01:27:46.882Z,101090.27
2018-11-11T01:30:16.407Z,101089.25
2018-11-11T01:32:45.606Z,101087.50
2018-11-11T01:35:16.237Z,101089.97
2018-11-11T01:37:45.771Z,101086.98
2018-11-11T01:40:15.277Z,101089.80
2018-11-11T01:42:44.921Z,101091.25
2018-11-11T01:45:18.264Z,101084.46
2018-11-11T01:47:48.397Z,101085.80
2018-11-11T01:50:17.682Z,101093.84
2018-11-11T01:52:46.933Z,101089.44
2018-11-11T01:55:16.104Z,101086.58
2018-11-11T01:57:45.324Z,101091.55
2018-11-11T02:00:17.608Z,101082.73
2018-11-11T02:02:48.274Z,101093.45
2018-11-11T02:05:17.433Z,101080.95
2018-11-11T02:07:47.256Z,101093.58
2018-11-11T02:10:16.401Z,101080.68
2018-11-11T02:12:46.517Z,101078.77
2018-11-11T02:15:17.085Z,101074.75
2018-11-11T02:17:46.385Z,101073.65
2018-11-11T02:20:16.735Z,101071.11
2018-11-11T02:22:47.432Z,101071.50
2018-11-11T02:25:16.658Z,101065.37
2018-11-11T02:27:47.712Z,101061.83
2018-11-11T02:30:19.212Z,101064.12
2018-11-11T02:32:48.937Z,101058.46
2018-11-11T02:35:18.169Z,101060.73
2018-11-11T02:37:47.445Z,101055.19
2018-11-11T02:40:18.173Z,101048.13
2018-11-11T02:42:47.950Z,101055.10
2018-11-11T02:45:18.445Z,101051.44
2018-11-11T02:47:47.641Z,101052.89
2018-11-11T02:50:17.970Z,101061.69
2018-11-11T02:52:47.608Z,101053.05
2018-11-11T02:55:17.185Z,101062.61
2018-11-11T02:57:47.297Z,101053.05
2018-11-11T03:00:18.756Z,101054.95
2018-11-11T03:02:48.937Z,101058.11
2018-11-11T03:05:19.025Z,101060.31
2018-11-11T03:07:48.142Z,101062.40
2018-11-11T03:10:18.217Z,101062.61
2018-11-11T03:12:48.427Z,101051.11
2018-11-11T03:15:18.417Z,101058.20
2018-11-11T03:17:47.613Z,101064.27
2018-11-11T03:20:17.241Z,101071.83
2018-11-11T03:22:46.717Z,101076.69
2018-11-11T03:25:16.701Z,101060.97
2018-11-11T03:27:45.824Z,101061.56
2018-11-11T03:30:16.576Z,101065.31
2018-11-11T03:32:46.055Z,101074.84
2018-11-11T03:35:15.616Z,101063.23
2018-11-11T03:37:45.928Z,101069.60
2018-11-11T03:40:16.745Z,101060.31
2018-11-11T03:42:46.334Z,101063.17
2018-11-11T03:45:16.788Z,101068.44
2018-11-11T03:47:46.932Z,101067.97
2018-11-11T03:50:16.813Z,101065.52
2018-11-11T03:52:46.269Z,101060.44
2018-11-11T03:55:15.914Z,101064.45
2018-11-11T03:57:45.029Z,101054.30
2018-11-11T04:00:15.399Z,101054.80
2018-11-11T04:02:44.933Z,101065.13
2018-11-11T04:05:15.505Z,101049.86
2018-11-11T04:07:44.685Z,101049.63
2018-11-11T04:10:17.812Z,101052.48
2018-11-11T04:12:47.397Z,101050.31
2018-11-11T04:15:18.199Z,101060.52
2018-11-11T04:17:47.667Z,101064.90
2018-11-11T04:20:19.425Z,101058.23
2018-11-11T04:22:48.689Z,101063.95
2018-11-11T04:25:18.652Z,101056.23
2018-11-11T04:27:48.173Z,101053.58
2018-11-11T04:30:17.384Z,101057.48
2018-11-11T04:32:46.681Z,101051.14
2018-11-11T04:35:16.384Z,101050.69
2018-11-11T04:37:45.493Z,101060.25
2018-11-11T04:40:14.812Z,101056.55
2018-11-11T04:42:44.392Z,101050.78
2018-11-11T04:45:14.837Z,101050.69
2018-11-11T04:47:44.981Z,101054.21
2018-11-11T04:50:15.377Z,101047.13
2018-11-11T04:52:45.478Z,101047.47
2018-11-11T04:55:14.768Z,101048.31
2018-11-11T04:57:44.241Z,101038.31
2018-11-11T05:00:14.935Z,101043.67
2018-11-11T05:02:44.096Z,101043.70
2018-11-11T05:05:14.198Z,101054.66
2018-11-11T05:07:43.373Z,101041.91
2018-11-11T05:10:13.105Z,101045.48
2018-11-11T05:12:42.441Z,101041.17
2018-11-11T05:15:13.207Z,101039.63
2018-11-11T05:17:42.862Z,101039.92
2018-11-11T05:20:13.309Z,101033.78
2018-11-11T05:22:43.202Z,101034.65
2018-11-11T05:25:13.998Z,101041.26
2018-11-11T05:27:43.920Z,101044.17
2018-11-11T05:30:14.312Z,101045.95
2018-11-11T05:32:43.429Z,101047.56
2018-11-11T05:35:13.171Z,101045.27
2018-11-11T05:37:42.903Z,101048.13
2018-11-11T05:40:13.013Z,101043.55
2018-11-11T05:42:43.386Z,101039.38
2018-11-11T05:45:13.942Z,101041.25
2018-11-11T05:47:43.688Z,101050.98
2018-11-11T05:50:14.809Z,101053.39
2018-11-11T05:52:45.370Z,101053.48
2018-11-11T05:55:14.910Z,101050.36
2018-11-11T05:57:44.018Z,101053.13
2018-11-11T06:00:15.606Z,101059.33
2018-11-11T06:02:45.192Z,101062.06
2018-11-11T06:05:15.667Z,101054.12
2018-11-11T06:07:45.142Z,101059.18
2018-11-11T06:10:15.997Z,101069.12
2018-11-11T06:12:45.705Z,101060.73
2018-11-11T06:15:15.407Z,101052.48
2018-11-11T06:17:44.667Z,101054.21
2018-11-11T06:20:15.489Z,101046.70
2018-11-11T06:22:44.671Z,101051.33
2018-11-11T06:25:13.869Z,101043.78
2018-11-11T06:27:43.556Z,101048.58
2018-11-11T06:30:13.154Z,101044.15
2018-11-11T06:32:43.081Z,101060.14
2018-11-11T06:35:12.383Z,101050.09
2018-11-11T06:37:41.820Z,101048.94
2018-11-11T06:40:13.329Z,101056.38
2018-11-11T06:42:42.977Z,101054.63
2018-11-11T06:45:13.531Z,101053.52
2018-11-11T06:47:43.455Z,101049.12
2018-11-11T06:50:13.802Z,101054.30
2018-11-11T06:52:43.541Z,101053.25
2018-11-11T06:55:13.080Z,101051.14
2018-11-11T06:57:42.237Z,101047.27
2018-11-11T07:00:14.561Z,101052.03
2018-11-11T07:02:55.013Z,101051.11
2018-11-11T07:05:24.146Z,101052.75
2018-11-11T07:07:53.299Z,101057.06
2018-11-11T07:10:25.757Z,101048.46
2018-11-11T07:12:54.914Z,101061.06
2018-11-11T07:15:24.446Z,101058.86
2018-11-11T07:17:53.661Z,101053.52
2018-11-11T07:20:24.194Z,101052.48
2018-11-11T07:22:53.417Z,101049.33
2018-11-11T07:25:22.841Z,101054.86
2018-11-11T07:27:52.349Z,101047.87
2018-11-11T07:30:21.566Z,101055.37
2018-11-11T07:32:50.960Z,101047.27
2018-11-11T07:35:20.405Z,101048.61
2018-11-11T07:37:49.514Z,101051.73
2018-11-11T07:40:18.856Z,101044.89
2018-11-11T07:42:48.193Z,101039.29
2018-11-11T07:45:17.967Z,101043.58
2018-11-11T07:47:48.021Z,101044.59
2018-11-11T07:50:17.333Z,101042.98
2018-11-11T07:52:48.009Z,101043.28
2018-11-11T07:55:17.373Z,101045.04
2018-11-11T07:57:47.488Z,101052.27
2018-11-11T08:00:17.044Z,101054.98
2018-11-11T08:02:47.037Z,101054.56
2018-11-11T08:05:16.306Z,101056.11
2018-11-11T08:07:46.301Z,101054.50
2018-11-11T08:10:26.992Z,101048.38
2018-11-11T08:12:56.991Z,101049.14
2018-11-11T08:15:26.429Z,100899.02
2018-11-11T08:17:55.656Z,101041.58
2018-11-11T08:20:24.889Z,101036.14
2018-11-11T08:22:54.197Z,101034.73
2018-11-11T08:25:23.574Z,101032.84
2018-11-11T08:27:53.177Z,101034.31
2018-11-11T08:30:22.571Z,101041.17
2018-11-11T08:32:52.267Z,101035.33
2018-11-11T08:35:21.930Z,101034.86
2018-11-11T08:37:51.079Z,101047.33
2018-11-11T08:40:20.473Z,101042.69
2018-11-11T08:42:49.605Z,101043.28
2018-11-11T08:45:18.883Z,101044.27
2018-11-11T08:47:48.078Z,101044.83
2018-11-11T08:50:17.801Z,101042.90
2018-11-11T08:52:46.905Z,101040.01
2018-11-11T08:55:16.083Z,101036.20
2018-11-11T08:57:45.330Z,101034.67
2018-11-11T09:00:15.228Z,101031.97
2018-11-11T09:02:44.940Z,101035.12
2018-11-11T09:05:14.082Z,101036.67
2018-11-11T09:07:43.309Z,101041.67
2018-11-11T09:10:13.057Z,101041.73
2018-11-11T09:12:42.333Z,101047.27
2018-11-11T09:15:13.244Z,101038.88
2018-11-11T09:17:42.929Z,101043.64
2018-11-11T09:20:13.210Z,101047.59
2018-11-11T09:22:42.940Z,101041.64
2018-11-11T09:25:12.234Z,101047.69
2018-11-11T09:27:42.594Z,101050.69
2018-11-11T09:30:13.507Z,101042.02
2018-11-11T09:32:43.926Z,101040.00
2018-11-11T09:35:14.168Z,101039.97
2018-11-11T09:37:43.550Z,101045.52
2018-11-11T09:40:13.613Z,101038.81
2018-11-11T09:42:43.061Z,101039.97
2018-11-11T09:45:14.199Z,101039.31
2018-11-11T09:47:43.987Z,101029.66
2018-11-11T09:50:15.109Z,101026.09
2018-11-11T09:52:44.476Z,101036.63
2018-11-11T09:55:14.061Z,101030.30
2018-11-11T09:57:43.186Z,101027.05
2018-11-11T10:00:17.487Z,101027.94
2018-11-11T10:02:53.638Z,101025.83
2018-11-11T10:05:42.693Z,101032.88
2018-11-11T10:08:23.583Z,101026.41
2018-11-11T10:10:59.112Z,101033.73
2018-11-11T10:13:32.377Z,101031.93
2018-11-11T10:17:11.941Z,101029.44
2018-11-11T10:19:49.249Z,101036.19
2018-11-11T10:22:22.778Z,101028.41
2018-11-11T10:24:57.113Z,101028.51
2018-11-11T10:27:34.421Z,101027.91
2018-11-11T10:32:14.278Z,101022.94
2018-11-11T10:34:48.497Z,101026.41
2018-11-11T10:37:21.337Z,101019.09
2018-11-11T10:39:54.319Z,101018.71
2018-11-11T10:43:00.317Z,101018.22
2018-11-11T10:45:36.212Z,101013.53
2018-11-11T10:48:09.057Z,101011.47
2018-11-11T10:50:45.335Z,101018.52
2018-11-11T10:53:14.930Z,101015.19
2018-11-11T10:55:44.242Z,101020.16
2018-11-11T10:58:13.368Z,101011.66
2018-11-11T11:00:48.254Z,101010.95
2018-11-11T11:03:22.774Z,101012.91
2018-11-11T11:05:52.049Z,101015.39
2018-11-11T11:08:21.161Z,101017.28
2018-11-11T11:10:50.441Z,101015.55
2018-11-11T11:13:19.936Z,101017.94
2018-11-11T11:15:49.121Z,101014.02
2018-11-11T11:18:18.237Z,101011.47
2018-11-11T11:20:47.830Z,101013.78
2018-11-11T11:23:17.124Z,101012.67
2018-11-11T11:25:46.571Z,101016.21
2018-11-11T11:28:15.913Z,101011.27
2018-11-11T11:30:45.080Z,101008.67
2018-11-11T11:33:14.199Z,101008.17
2018-11-11T11:35:43.598Z,101016.02
2018-11-11T11:38:12.798Z,101017.09
2018-11-11T11:40:42.122Z,101018.33
2018-11-11T11:43:11.373Z,101019.59
2018-11-11T11:45:40.669Z,101013.67
2018-11-11T11:48:09.906Z,101020.91
2018-11-11T11:50:39.111Z,101020.14
2018-11-11T11:53:08.217Z,101021.84
2018-11-11T11:55:37.354Z,101021.84
2018-11-11T11:58:18.174Z,101018.30
2018-11-11T12:00:47.461Z,101019.58
2018-11-11T12:03:16.957Z,101017.28
2018-11-11T12:05:47.261Z,101017.38
2018-11-11T12:08:16.549Z,101015.46
2018-11-11T12:10:45.673Z,101015.26
2018-11-11T12:13:15.757Z,101018.98
2018-11-11T12:15:45.102Z,101014.78
2018-11-11T12:18:14.301Z,101018.03
2018-11-11T12:20:43.705Z,101021.07
2018-11-11T12:23:13.179Z,101014.88
2018-11-11T12:25:42.759Z,101014.96
2018-11-11T12:28:12.173Z,101011.53
2018-11-11T12:30:41.315Z,101019.73
2018-11-11T12:33:10.442Z,101022.03
2018-11-11T12:35:39.590Z,101013.16
2018-11-11T12:38:08.674Z,101013.42
2018-11-11T12:40:37.957Z,101012.73
2018-11-11T12:43:07.629Z,101008.84
2018-11-11T12:45:36.881Z,101004.70
2018-11-11T12:48:06.350Z,100999.91
2018-11-11T12:50:35.885Z,101008.24
2018-11-11T12:53:05.097Z,101010.72
2018-11-11T12:55:34.573Z,101016.76
2018-11-11T12:58:03.718Z,101018.89
2018-11-11T13:00:32.802Z,101015.28
2018-11-11T13:03:01.986Z,101009.50
2018-11-11T13:05:32.210Z,101004.88
2018-11-11T13:08:01.402Z,101002.42
2018-11-11T13:10:30.565Z,101003.84
2018-11-11T13:12:59.813Z,101002.16
2018-11-11T13:15:28.982Z,100995.55
2018-11-11T13:17:58.801Z,100997.93
2018-11-11T13:20:28.001Z,100995.04
2018-11-11T13:22:57.434Z,100994.42
2018-11-11T13:25:26.545Z,100984.96
2018-11-11T13:27:56.161Z,100993.23
2018-11-11T13:30:26.053Z,101000.94
2018-11-11T13:32:55.381Z,101003.97
2018-11-11T13:35:25.635Z,101000.30
2018-11-11T13:37:55.471Z,101008.34
2018-11-11T13:40:24.653Z,100934.12
2018-11-11T13:42:53.850Z,101004.84
2018-11-11T13:45:24.617Z,100999.66
2018-11-11T13:47:55.056Z,101003.97
2018-11-11T13:50:26.314Z,100999.66
2018-11-11T13:52:55.861Z,101001.98
2018-11-11T13:55:25.764Z,100999.78
2018-11-11T13:57:54.933Z,100998.72
2018-11-11T14:00:25.555Z,100997.88
2018-11-11T14:02:54.937Z,100998.02
2018-11-11T14:05:24.906Z,101000.94
2018-11-11T14:07:54.429Z,101007.88
2018-11-11T14:10:23.633Z,101008.67
2018-11-11T14:12:53.557Z,101004.64
2018-11-11T14:15:24.353Z,101009.54
2018-11-11T14:17:55.213Z,101006.96
2018-11-11T14:20:25.642Z,101008.41
2018-11-11T14:22:56.029Z,101014.22
2018-11-11T14:25:27.756Z,101017.48
2018-11-11T14:27:57.061Z,101016.06
2018-11-11T14:30:27.166Z,101019.09
2018-11-11T14:32:57.640Z,101015.16
2018-11-11T14:35:26.930Z,101012.95
2018-11-11T14:37:56.254Z,101012.14
2018-11-11T14:40:27.790Z,101010.02
2018-11-11T14:42:57.013Z,101010.93
2018-11-11T14:45:26.665Z,101015.73
2018-11-11T14:47:56.815Z,101020.82
2018-11-11T14:50:26.583Z,101017.88
2018-11-11T14:52:55.956Z,101012.66
2018-11-11T14:55:27.808Z,101010.08
2018-11-11T14:57:57.908Z,101015.43
2018-11-11T15:00:28.653Z,101029.42
2018-11-11T15:03:04.925Z,101019.83
2018-11-11T15:05:34.994Z,101019.91
2018-11-11T15:08:04.289Z,101012.80
2018-11-11T15:10:33.468Z,101012.48
2018-11-11T15:13:02.743Z,101010.45
2018-11-11T15:15:32.037Z,101016.45
2018-11-11T15:18:01.982Z,101013.13
2018-11-11T15:20:31.568Z,101015.45
2018-11-11T15:23:00.712Z,101015.16
2018-11-11T15:25:30.892Z,101001.86
2018-11-11T15:28:00.388Z,101010.98
2018-11-11T15:30:31.873Z,101005.58
2018-11-11T15:33:01.647Z,101004.72
2018-11-11T15:35:30.845Z,101005.10
2018-11-11T15:38:00.004Z,101005.23
2018-11-11T15:40:30.881Z,101010.80
2018-11-11T15:43:00.352Z,101005.66
2018-11-11T15:45:30.789Z,101000.35
2018-11-11T15:48:00.376Z,101008.77
2018-11-11T15:50:31.720Z,101009.42
2018-11-11T15:53:04.101Z,101010.93
2018-11-11T15:55:34.889Z,101011.07
2018-11-11T15:58:04.066Z,101001.31
2018-11-11T16:00:35.777Z,100999.84
2018-11-11T16:03:05.142Z,100999.77
2018-11-11T16:05:34.349Z,101002.27
2018-11-11T16:08:03.865Z,100994.48
2018-11-11T16:10:33.831Z,100995.17
2018-11-11T16:13:03.078Z,100991.67
2018-11-11T16:15:36.141Z,100991.67
2018-11-11T16:18:07.427Z,100983.43
2018-11-11T16:20:36.597Z,100992.23
2018-11-11T16:23:06.824Z,100987.23
2018-11-11T16:25:36.465Z,100982.92
2018-11-11T16:28:06.029Z,100987.53
2018-11-11T16:30:36.427Z,100989.34
2018-11-11T16:33:06.905Z,100986.28
2018-11-11T16:35:36.201Z,100986.92
2018-11-11T16:38:06.349Z,100991.33
2018-11-11T16:40:36.771Z,100988.19
2018-11-11T16:43:06.165Z,100988.78
2018-11-11T16:45:36.168Z,100983.22
2018-11-11T16:48:06.116Z,100996.34
2018-11-11T16:50:36.365Z,100988.58
2018-11-11T16:53:07.273Z,100988.49
2018-11-11T16:55:37.428Z,100984.59
2018-11-11T16:58:06.620Z,100984.77
2018-11-11T17:00:36.994Z,100986.32
2018-11-11T17:03:07.235Z,100989.43
2018-11-11T17:05:37.394Z,100980.28
2018-11-11T17:08:06.981Z,100982.65
2018-11-11T17:10:38.345Z,100988.28
2018-11-11T17:13:10.406Z,100982.75
2018-11-11T17:15:40.013Z,100980.15
2018-11-11T17:18:09.117Z,100975.01
2018-11-11T17:20:39.021Z,100983.43
2018-11-11T17:23:08.694Z,100976.73
2018-11-11T17:25:37.984Z,100977.81
2018-11-11T17:28:07.551Z,100983.91
2018-11-11T17:30:36.725Z,100982.17
2018-11-11T17:33:06.397Z,100975.74
2018-11-11T17:35:36.048Z,100975.67
2018-11-11T17:38:05.806Z,100975.48
2018-11-11T17:40:35.701Z,100983.81
2018-11-11T17:43:04.881Z,100972.27
2018-11-11T17:45:34.012Z,100971.31
2018-11-11T17:48:03.185Z,100960.28
2018-11-11T17:50:33.560Z,100966.98
2018-11-11T17:53:04.453Z,100962.75
2018-11-11T17:55:33.790Z,100959.89
2018-11-11T17:58:03.097Z,100964.69
2018-11-11T18:00:33.104Z,100961.06
2018-11-11T18:03:03.201Z,100955.14
2018-11-11T18:05:33.491Z,100957.88
2018-11-11T18:08:02.735Z,100963.63
2018-11-11T18:10:31.976Z,100968.29
2018-11-11T18:13:01.284Z,100969.50
2018-11-11T18:15:31.659Z,100924.76
2018-11-11T18:18:00.989Z,100960.17
2018-11-11T18:20:31.494Z,100960.34
2018-11-11T18:23:02.137Z,100962.25
2018-11-11T18:25:31.269Z,100968.94
2018-11-11T18:28:00.827Z,100967.12
2018-11-11T18:30:34.740Z,100974.33
2018-11-11T18:33:03.877Z,100977.86
2018-11-11T18:35:33.077Z,100977.57
2018-11-11T18:38:02.441Z,100979.08
2018-11-11T18:40:32.198Z,100975.55
2018-11-11T18:43:01.434Z,100976.49
2018-11-11T18:45:31.279Z,100979.86
2018-11-11T18:48:00.491Z,100975.02
2018-11-11T18:50:33.285Z,100970.22
2018-11-11T18:53:03.252Z,100976.27
2018-11-11T18:55:32.565Z,100976.27
2018-11-11T18:58:01.871Z,100969.44
2018-11-11T19:00:32.393Z,100958.19
2018-11-11T19:03:01.550Z,100962.75
2018-11-11T19:05:31.084Z,100956.06
2018-11-11T19:08:00.602Z,100964.09
2018-11-11T19:10:31.550Z,100963.52
2018-11-11T19:13:02.173Z,100965.61
2018-11-11T19:15:31.742Z,100961.12
2018-11-11T19:18:00.879Z,100954.72
2018-11-11T19:20:30.397Z,100950.16
2018-11-11T19:22:59.925Z,100951.67
2018-11-11T19:25:30.218Z,100948.23
2018-11-11T19:28:01.234Z,100944.52
2018-11-11T19:30:31.295Z,100942.50
2018-11-11T19:33:00.533Z,100943.86
2018-11-11T19:35:30.165Z,100940.14
2018-11-11T19:37:59.801Z,100945.67
2018-11-11T19:40:30.304Z,100938.20
2018-11-11T19:43:00.533Z,100937.69
2018-11-11T19:45:30.733Z,100933.71
2018-11-11T19:47:59.992Z,100934.75
2018-11-11T19:50:29.977Z,100930.40
2018-11-11T19:52:59.897Z,100935.09
2018-11-11T19:55:29.888Z,100925.69
2018-11-11T19:57:59.304Z,100931.05
2018-11-11T20:00:30.049Z,100938.90
2018-11-11T20:03:00.389Z,100928.92
2018-11-11T20:05:29.637Z,100931.69
2018-11-11T20:07:59.896Z,100936.73
2018-11-11T20:10:30.138Z,100900.73
2018-11-11T20:12:59.782Z,100932.13
2018-11-11T20:15:30.682Z,100934.63
2018-11-11T20:18:00.383Z,100937.77
2018-11-11T20:20:37.609Z,100933.06
2018-11-11T20:23:07.417Z,100935.34
2018-11-11T20:25:36.618Z,100939.11
2018-11-11T20:28:06.605Z,100938.64
2018-11-11T20:30:37.165Z,100933.50
2018-11-11T20:33:06.899Z,100933.80
2018-11-11T20:35:36.191Z,100939.72
2018-11-11T20:38:05.580Z,100932.92
2018-11-11T20:40:35.249Z,100939.61
2018-11-11T20:43:04.501Z,100935.31
2018-11-11T20:45:34.538Z,100940.48
2018-11-11T20:48:03.957Z,100930.08
2018-11-11T20:50:33.917Z,100935.22
2018-11-11T20:53:04.471Z,100927.80
2018-11-11T20:55:33.865Z,100932.66
2018-11-11T20:58:03.281Z,100924.02
2018-11-11T21:00:34.259Z,100928.37
2018-11-11T21:03:03.562Z,100924.94
2018-11-11T21:05:32.857Z,100924.44
2018-11-11T21:08:02.347Z,100928.66
2018-11-11T21:10:31.757Z,100922.21
2018-11-11T21:13:01.238Z,100923.46
2018-11-11T21:15:31.799Z,100918.91
2018-11-11T21:18:00.918Z,100920.22
2018-11-11T21:20:31.645Z,100923.07
2018-11-11T21:23:00.759Z,100921.47
2018-11-11T21:25:29.971Z,100918.58
2018-11-11T21:27:59.332Z,100920.81
2018-11-11T21:30:30.745Z,100919.21
2018-11-11T21:32:59.921Z,100914.45
2018-11-11T21:35:29.161Z,100915.34
2018-11-11T21:37:58.537Z,100909.72
2018-11-11T21:40:28.487Z,100909.36
2018-11-11T21:42:57.921Z,100906.87
2018-11-11T21:45:28.071Z,100909.09
2018-11-11T21:47:57.317Z,100908.50
2018-11-11T21:50:27.456Z,100906.87
2018-11-11T21:53:05.872Z,100907.41
2018-11-11T21:55:34.905Z,100902.44
2018-11-11T21:58:04.261Z,100899.88
2018-11-11T22:00:34.569Z,100907.02
2018-11-11T22:03:03.907Z,100899.61
2018-11-11T22:05:33.112Z,100902.16
2018-11-11T22:08:02.307Z,100902.14
2018-11-11T22:10:31.461Z,100902.37
2018-11-11T22:13:00.558Z,100893.36
2018-11-11T22:15:30.256Z,100890.56
2018-11-11T22:17:59.857Z,100886.67
2018-11-11T22:20:29.054Z,100888.22
2018-11-11T22:22:58.173Z,100884.31
2018-11-11T22:25:27.485Z,100878.76
2018-11-11T22:27:56.713Z,100883.22
2018-11-11T22:30:25.904Z,100879.50
2018-11-11T22:32:55.065Z,100874.36
2018-11-11T22:35:24.252Z,100865.28
2018-11-11T22:37:53.419Z,100862.88
2018-11-11T22:40:22.589Z,100860.11
2018-11-11T22:42:51.740Z,100859.81
2018-11-11T22:45:20.978Z,100865.08
2018-11-11T22:47:50.125Z,100863.83
2018-11-11T22:50:19.931Z,100862.28
2018-11-11T22:52:49.449Z,100864.01
2018-11-11T22:55:18.773Z,100867.34
2018-11-11T22:57:47.878Z,100877.39
2018-11-11T23:00:22.441Z,100870.79
2018-11-11T23:02:52.149Z,100860.65
2018-11-11T23:05:22.255Z,100865.34
2018-11-11T23:07:51.662Z,100866.00
2018-11-11T23:10:21.169Z,100871.41
2018-11-11T23:12:50.814Z,100864.98
2018-11-11T23:15:21.321Z,100862.30
2018-11-11T23:17:50.849Z,100868.41
2018-11-11T23:20:21.029Z,100867.75
2018-11-11T23:22:50.472Z,100870.45
2018-11-11T23:25:19.798Z,100865.30
2018-11-11T23:27:48.964Z,100869.91
2018-11-11T23:30:20.727Z,100864.05
2018-11-11T23:32:50.297Z,100863.59
2018-11-11T23:35:19.461Z,100866.64
2018-11-11T23:37:49.034Z,100858.02
2018-11-11T23:40:19.288Z,100854.66
2018-11-11T23:42:49.078Z,100858.69
2018-11-11T23:45:18.367Z,100855.23
2018-11-11T23:47:47.569Z,100861.36
2018-11-11T23:50:18.423Z,100866.48
2018-11-11T23:52:47.969Z,100863.80
2018-11-11T23:55:18.278Z,100862.89
2018-11-11T23:57:47.593Z,100865.02
